Time;durP1;ratioP1;P1;durP2;ratioP2;P2;SDS_P1;SDS_P2;PMS_P1;PMS_P2;Temp;Humidity;BMP_temperature;BMP_pressure;BME280_temperature;BME280_humidity;BME280_pressure;Samples;Min_cycle;Max_cycle;Signal;HPM_P1;HPM_P2
2024/02/26 00:02:03;;;;;;;2.00;0.20;;;5.50;99.90;;;;;;5040286;28;20029;-80
2024/02/26 00:04:31;;;;;;;2.30;0.20;;;5.50;99.90;;;;;;5038541;28;20473;-78
2024/02/26 00:06:58;;;;;;;3.47;0.40;;;5.50;99.90;;;;;;5037662;28;20108;-78
2024/02/26 00:09:24;;;;;;;1.38;0.17;;;;;;;;;;5034410;28;20302;-79
2024/02/26 00:11:49;;;;;;;1.52;0.55;;;5.40;99.90;;;;;;5032829;28;20036;-78
2024/02/26 00:14:15;;;;;;;5.68;0.45;;;5.40;99.90;;;;;;5034158;28;20017;-78
2024/02/26 00:16:41;;;;;;;3.28;0.52;;;5.40;99.90;;;;;;5034554;28;20014;-78
2024/02/26 00:19:07;;;;;;;1.25;0.28;;;5.40;99.90;;;;;;5035159;28;20048;-79
2024/02/26 00:21:32;;;;;;;2.90;0.30;;;5.40;99.90;;;;;;5036679;28;20025;-79
2024/02/26 00:23:58;;;;;;;2.13;0.45;;;5.40;99.90;;;;;;5035023;28;20108;-78
2024/02/26 00:26:24;;;;;;;3.50;0.32;;;5.40;99.90;;;;;;5033635;28;20034;-78
2024/02/26 00:28:49;;;;;;;1.67;0.50;;;5.40;99.90;;;;;;5038085;28;20484;-78
2024/02/26 00:31:15;;;;;;;1.80;0.20;;;5.40;99.90;;;;;;5036318;28;20049;-78
2024/02/26 00:33:41;;;;;;;0.93;0.40;;;5.40;99.90;;;;;;5033641;28;20484;-80
2024/02/26 00:36:06;;;;;;;2.97;0.70;;;5.70;99.90;;;;;;5039620;28;20053;-79
2024/02/26 00:38:32;;;;;;;1.80;0.50;;;;;;;;;;5036166;28;20025;-77
2024/02/26 00:40:58;;;;;;;2.13;0.73;;;5.30;99.90;;;;;;5034375;28;20056;-78
2024/02/26 00:43:24;;;;;;;2.42;0.98;;;5.30;99.90;;;;;;5035009;28;20022;-78
2024/02/26 00:45:51;;;;;;;2.85;0.70;;;5.30;99.90;;;;;;5036006;28;20022;-78
2024/02/26 00:48:18;;;;;;;2.97;0.80;;;5.20;99.90;;;;;;5034009;28;20022;-77
2024/02/26 00:50:44;;;;;;;2.88;0.98;;;5.20;99.90;;;;;;5036450;28;20033;-78
2024/02/26 00:53:09;;;;;;;3.28;1.30;;;5.20;99.90;;;;;;5035816;28;20029;-78
2024/02/26 00:55:35;;;;;;;3.47;0.98;;;5.10;99.90;;;;;;5038007;28;20022;-79
2024/02/26 00:58:00;;;;;;;4.03;1.10;;;5.10;99.90;;;;;;5037430;28;20750;-79
2024/02/26 01:00:26;;;;;;;2.13;1.10;;;5.10;99.90;;;;;;5034180;28;20029;-79
2024/02/26 01:02:52;;;;;;;2.60;0.50;;;5.10;99.90;;;;;;5038168;28;20092;-78
2024/02/26 01:05:17;;;;;;;1.40;0.88;;;5.10;99.90;;;;;;5036723;28;20026;-78
2024/02/26 01:07:43;;;;;;;2.05;1.23;;;5.10;99.90;;;;;;5033758;28;20156;-79
2024/02/26 01:10:09;;;;;;;1.92;1.20;;;5.10;99.90;;;;;;5035376;28;20033;-79
2024/02/26 01:12:35;;;;;;;2.17;1.33;;;5.10;99.90;;;;;;5035836;28;20025;-79
2024/02/26 01:15:05;;;;;;;4.22;1.58;;;5.10;99.90;;;;;;5035366;28;20022;-79
2024/02/26 01:17:30;;;;;;;3.42;1.05;;;5.10;99.90;;;;;;5036158;28;20083;-79
2024/02/26 01:19:57;;;;;;;3.00;1.75;;;5.00;99.90;;;;;;5035162;28;20034;-79
2024/02/26 01:22:22;;;;;;;1.80;1.20;;;5.00;99.90;;;;;;5034355;28;20017;-79
2024/02/26 01:24:50;;;;;;;3.95;1.10;;;5.10;99.90;;;;;;5039489;28;20124;-79
2024/02/26 01:27:15;;;;;;;5.18;1.40;;;5.10;99.90;;;;;;5038539;28;20026;-79
2024/02/26 01:29:41;;;;;;;3.35;1.45;;;5.10;99.90;;;;;;5039233;28;20039;-78
2024/02/26 01:32:07;;;;;;;3.97;1.00;;;5.10;99.90;;;;;;5040711;28;20080;-78
2024/02/26 01:34:33;;;;;;;3.85;1.88;;;5.10;99.90;;;;;;5040170;28;20025;-78
2024/02/26 01:37:01;;;;;;;4.43;1.27;;;5.10;99.90;;;;;;5038515;28;20037;-78
2024/02/26 01:39:30;;;;;;;3.70;1.20;;;5.00;99.90;;;;;;5039012;28;20124;-78
2024/02/26 01:41:56;;;;;;;3.47;1.40;;;5.10;99.90;;;;;;5038989;28;20029;-78
2024/02/26 01:44:22;;;;;;;3.25;1.20;;;5.00;99.90;;;;;;5040501;28;20025;-78
2024/02/26 01:46:48;;;;;;;2.05;1.08;;;5.10;99.90;;;;;;5039845;28;20033;-78
2024/02/26 01:49:15;;;;;;;3.63;1.63;;;5.00;99.90;;;;;;5038494;28;20025;-78
2024/02/26 01:51:43;;;;;;;2.05;1.23;;;5.30;99.90;;;;;;5038971;28;20025;-79
2024/02/26 01:54:09;;;;;;;3.65;1.63;;;5.10;99.90;;;;;;5039082;28;20028;-79
2024/02/26 01:56:36;;;;;;;3.78;1.38;;;5.10;99.90;;;;;;5040998;28;20105;-79
2024/02/26 01:59:03;;;;;;;2.30;1.48;;;5.10;99.90;;;;;;5038448;28;20095;-79
2024/02/26 02:01:31;;;;;;;3.97;1.77;;;5.20;99.90;;;;;;5039351;28;20018;-79
2024/02/26 02:03:58;;;;;;;4.32;1.65;;;5.20;99.90;;;;;;5038966;28;20025;-79
2024/02/26 02:06:25;;;;;;;2.38;1.33;;;5.20;99.90;;;;;;5038025;28;20030;-79
2024/02/26 02:08:52;;;;;;;2.78;1.50;;;;;;;;;;5038570;28;20029;-79
2024/02/26 02:11:17;;;;;;;3.17;1.38;;;5.30;99.90;;;;;;5037754;28;20025;-79
2024/02/26 02:13:44;;;;;;;3.00;1.10;;;;;;;;;;5038975;28;20017;-79
2024/02/26 02:16:09;;;;;;;3.25;1.40;;;5.20;99.90;;;;;;5040400;28;20025;-79
2024/02/26 02:18:35;;;;;;;3.20;1.20;;;5.30;99.90;;;;;;5039230;28;20059;-79
2024/02/26 02:21:01;;;;;;;5.03;1.70;;;5.30;99.90;;;;;;5039790;28;20025;-79
2024/02/26 02:23:27;;;;;;;4.40;1.60;;;5.20;99.90;;;;;;5039065;28;20025;-79
2024/02/26 02:25:54;;;;;;;4.03;2.20;;;5.20;99.90;;;;;;5040523;28;20111;-79
2024/02/26 02:28:21;;;;;;;6.22;1.85;;;5.20;99.90;;;;;;5039009;28;20034;-79
2024/02/26 02:30:47;;;;;;;4.47;2.33;;;5.20;99.90;;;;;;5038246;28;20017;-79
2024/02/26 02:33:15;;;;;;;4.65;2.08;;;5.20;99.90;;;;;;5038209;28;20032;-79
2024/02/26 02:35:41;;;;;;;4.20;1.70;;;;;;;;;;5038571;28;20021;-79
2024/02/26 02:38:07;;;;;;;4.20;1.85;;;5.10;99.90;;;;;;5036855;28;20334;-78
2024/02/26 02:40:32;;;;;;;3.58;2.13;;;5.20;99.90;;;;;;5038024;28;20485;-79
2024/02/26 02:42:58;;;;;;;4.95;2.35;;;5.20;99.90;;;;;;5038817;28;20036;-79
2024/02/26 02:45:24;;;;;;;5.25;2.08;;;5.20;99.90;;;;;;5038238;28;20124;-79
2024/02/26 02:47:50;;;;;;;4.72;2.28;;;;;;;;;;5038353;28;20049;-79
2024/02/26 02:50:15;;;;;;;7.60;2.67;;;5.20;99.90;;;;;;5039980;28;20025;-78
2024/02/26 02:52:41;;;;;;;5.80;2.35;;;5.20;99.90;;;;;;5040073;28;20022;-78
2024/02/26 02:55:07;;;;;;;4.25;2.15;;;8.00;99.90;;;;;;5038621;28;20030;-78
2024/02/26 02:57:33;;;;;;;6.28;2.58;;;5.20;99.90;;;;;;5038925;28;20072;-78
2024/02/26 02:59:58;;;;;;;6.43;2.58;;;5.20;99.90;;;;;;5037868;28;20021;-79
2024/02/26 03:02:27;;;;;;;5.85;2.25;;;5.20;99.90;;;;;;5037177;28;20117;-78
2024/02/26 03:04:54;;;;;;;7.13;2.42;;;5.20;99.90;;;;;;5038793;28;20025;-79
2024/02/26 03:07:21;;;;;;;4.95;2.60;;;5.20;99.90;;;;;;5041025;28;20073;-79
2024/02/26 03:09:47;;;;;;;6.03;1.95;;;;;;;;;;5037363;28;20031;-79
2024/02/26 03:12:12;;;;;;;7.63;3.67;;;5.20;99.90;;;;;;5039122;28;20459;-79
2024/02/26 03:14:38;;;;;;;6.72;2.72;;;5.10;99.90;;;;;;5036637;28;20036;-79
2024/02/26 03:17:04;;;;;;;5.97;2.67;;;;;;;;;;5036598;28;20018;-79
2024/02/26 03:19:30;;;;;;;5.00;2.20;;;5.10;99.90;;;;;;5036867;28;20033;-78
2024/02/26 03:21:55;;;;;;;5.68;2.60;;;5.70;99.90;;;;;;5037818;28;20025;-79
2024/02/26 03:24:21;;;;;;;7.55;3.00;;;5.50;99.90;;;;;;5037066;28;20128;-79
2024/02/26 03:26:46;;;;;;;7.32;2.92;;;5.20;99.90;;;;;;5036669;28;20021;-79
2024/02/26 03:29:12;;;;;;;7.25;2.60;;;5.10;99.90;;;;;;5038171;28;20120;-79
2024/02/26 03:31:38;;;;;;;6.95;2.63;;;5.20;99.90;;;;;;5037185;28;20087;-79
2024/02/26 03:34:03;;;;;;;5.43;2.30;;;5.20;99.90;;;;;;5036540;28;20362;-79
2024/02/26 03:36:29;;;;;;;6.15;2.75;;;5.20;99.90;;;;;;5038039;28;20033;-79
2024/02/26 03:38:54;;;;;;;8.68;3.42;;;5.20;99.90;;;;;;5038142;28;20442;-79
2024/02/26 03:41:20;;;;;;;8.07;2.70;;;5.20;99.90;;;;;;5039168;28;20029;-79
2024/02/26 03:43:46;;;;;;;10.77;2.88;;;5.10;99.90;;;;;;5038160;28;20021;-79
2024/02/26 03:46:13;;;;;;;5.63;3.05;;;5.20;99.90;;;;;;5036387;28;20034;-79
2024/02/26 03:48:40;;;;;;;6.28;2.58;;;5.10;99.90;;;;;;5036301;28;20018;-78
2024/02/26 03:51:06;;;;;;;4.90;2.22;;;;;;;;;;5036411;28;20026;-78
2024/02/26 03:53:32;;;;;;;6.45;2.78;;;5.20;99.90;;;;;;5039064;28;20033;-78
2024/02/26 03:56:02;;;;;;;8.02;2.72;;;5.20;99.90;;;;;;5037493;28;20025;-78
2024/02/26 03:58:28;;;;;;;7.97;3.55;;;;;;;;;;5036638;28;20374;-79
2024/02/26 04:00:54;;;;;;;5.90;2.30;;;5.10;99.90;;;;;;5036674;28;20032;-79
2024/02/26 04:03:19;;;;;;;6.90;3.28;;;5.10;99.90;;;;;;5036692;28;20055;-79
2024/02/26 04:05:45;;;;;;;5.72;2.47;;;5.10;99.90;;;;;;5036255;28;20028;-79
2024/02/26 04:08:11;;;;;;;7.65;2.70;;;5.10;99.90;;;;;;5035868;28;20044;-79
2024/02/26 04:10:39;;;;;;;7.00;2.63;;;5.10;99.90;;;;;;5036570;28;20116;-79
2024/02/26 04:13:07;;;;;;;6.90;3.20;;;5.10;99.90;;;;;;5037675;28;20092;-79
2024/02/26 04:15:33;;;;;;;6.40;3.05;;;5.10;99.90;;;;;;5037405;28;20540;-79
2024/02/26 04:17:58;;;;;;;9.32;3.15;;;5.10;99.90;;;;;;5036601;28;20056;-79
2024/02/26 04:20:24;;;;;;;6.10;2.85;;;5.10;99.90;;;;;;5037041;28;20033;-79
2024/02/26 04:22:50;;;;;;;6.80;2.90;;;5.10;99.90;;;;;;5036119;28;20021;-79
2024/02/26 04:25:15;;;;;;;6.53;2.42;;;5.10;99.90;;;;;;5036400;28;20022;-79
2024/02/26 04:27:41;;;;;;;7.45;3.08;;;5.10;99.90;;;;;;5037782;28;20037;-79
2024/02/26 04:30:08;;;;;;;8.18;3.05;;;5.10;99.90;;;;;;5039128;28;20531;-78
2024/02/26 04:32:34;;;;;;;7.15;2.65;;;5.20;99.90;;;;;;5037077;28;20030;-78
2024/02/26 04:35:00;;;;;;;8.48;3.28;;;5.20;99.90;;;;;;5037725;28;20544;-78
2024/02/26 04:37:30;;;;;;;6.78;3.25;;;5.20;99.90;;;;;;5038786;28;20104;-78
2024/02/26 04:40:01;;;;;;;11.57;3.80;;;5.10;99.90;;;;;;5038966;28;20032;-78
2024/02/26 04:42:28;;;;;;;7.43;3.13;;;5.10;99.90;;;;;;5038066;28;20029;-78
2024/02/26 04:44:55;;;;;;;10.18;3.60;;;5.10;99.90;;;;;;5036557;28;20425;-78
2024/02/26 04:47:22;;;;;;;8.27;3.72;;;5.20;99.90;;;;;;5037145;28;20029;-78
2024/02/26 04:49:52;;;;;;;15.23;3.70;;;5.10;99.90;;;;;;5038603;28;20010;-79
2024/02/26 04:52:19;;;;;;;9.25;3.75;;;5.10;99.90;;;;;;5037065;28;20453;-79
2024/02/26 04:54:46;;;;;;;8.25;3.42;;;5.10;99.90;;;;;;5038535;28;20021;-79
2024/02/26 04:57:12;;;;;;;16.90;4.75;;;;;;;;;;5038034;28;20109;-79
2024/02/26 04:59:40;;;;;;;10.93;4.20;;;;;;;;;;5043100;28;20546;-79
2024/02/26 05:02:06;;;;;;;9.60;3.40;;;5.10;99.90;;;;;;5042477;28;20030;-79
2024/02/26 05:04:31;;;;;;;10.75;4.30;;;5.00;99.90;;;;;;5042407;28;20546;-79
2024/02/26 05:06:58;;;;;;;12.40;4.03;;;5.10;99.90;;;;;;5043666;28;20053;-79
2024/02/26 05:09:23;;;;;;;9.60;4.43;;;5.10;99.90;;;;;;5040799;28;20018;-79
2024/02/26 05:11:49;;;;;;;12.32;3.92;;;5.10;99.90;;;;;;5041805;28;20124;-79
2024/02/26 05:14:14;;;;;;;10.73;4.00;;;5.10;99.90;;;;;;5041262;28;20014;-79
2024/02/26 05:16:40;;;;;;;10.73;3.78;;;5.10;99.90;;;;;;5040124;28;20028;-79
2024/02/26 05:19:06;;;;;;;10.80;4.68;;;5.10;99.90;;;;;;5040259;28;20018;-79
2024/02/26 05:21:31;;;;;;;11.57;4.00;;;6.10;99.90;;;;;;5041032;28;20026;-79
2024/02/26 05:23:57;;;;;;;11.18;4.43;;;5.00;99.90;;;;;;5040457;28;20033;-79
2024/02/26 05:26:23;;;;;;;10.32;4.10;;;;;;;;;;5042223;28;20103;-79
2024/02/26 05:28:50;;;;;;;9.15;4.10;;;;;;;;;;5041145;28;20053;-79
2024/02/26 05:31:16;;;;;;;8.18;3.85;;;5.00;99.90;;;;;;5042947;28;20025;-79
2024/02/26 05:33:42;;;;;;;8.18;3.65;;;5.00;99.90;;;;;;5040777;28;20134;-78
2024/02/26 05:36:07;;;;;;;8.95;3.35;;;5.10;99.90;;;;;;5041956;28;20025;-78
2024/02/26 05:38:36;;;;;;;9.57;3.92;;;5.00;99.90;;;;;;5040960;28;20473;-78
2024/02/26 05:41:02;;;;;;;11.18;4.55;;;5.00;99.90;;;;;;5041949;28;20037;-77
2024/02/26 05:43:28;;;;;;;10.50;4.80;;;5.00;99.90;;;;;;5040375;28;20040;-77
2024/02/26 05:45:54;;;;;;;10.00;4.30;;;5.00;99.90;;;;;;5039687;28;20124;-77
2024/02/26 05:48:20;;;;;;;9.73;3.80;;;5.00;99.90;;;;;;5039907;28;20045;-78
2024/02/26 05:50:46;;;;;;;10.18;4.05;;;5.00;99.90;;;;;;5040674;28;20014;-78
2024/02/26 05:53:12;;;;;;;10.70;4.05;;;6.40;99.90;;;;;;5039739;28;20056;-78
2024/02/26 05:55:38;;;;;;;14.48;4.72;;;5.00;99.90;;;;;;5040245;28;20071;-78
2024/02/26 05:58:04;;;;;;;16.52;5.57;;;5.00;99.90;;;;;;5038935;28;20060;-78
2024/02/26 06:00:30;;;;;;;10.75;4.43;;;5.00;99.90;;;;;;5038928;28;20029;-78
2024/02/26 06:02:56;;;;;;;10.23;4.53;;;5.00;99.90;;;;;;5039846;28;20025;-77
2024/02/26 06:05:22;;;;;;;11.30;4.32;;;7.10;99.90;;;;;;5038741;28;20053;-78
2024/02/26 06:07:47;;;;;;;17.73;4.55;;;5.00;99.90;;;;;;5040636;28;20032;-77
2024/02/26 06:10:16;;;;;;;10.32;5.18;;;5.00;99.90;;;;;;5038327;28;20116;-77
2024/02/26 06:12:41;;;;;;;10.38;4.75;;;5.00;99.90;;;;;;5039467;28;20056;-78
2024/02/26 06:15:07;;;;;;;12.57;4.93;;;5.00;99.90;;;;;;5039567;28;20416;-77
2024/02/26 06:17:33;;;;;;;14.10;4.80;;;5.00;99.90;;;;;;5040478;28;20049;-79
2024/02/26 06:19:59;;;;;;;10.75;4.30;;;5.00;99.90;;;;;;5038989;28;20059;-78
2024/02/26 06:22:26;;;;;;;13.25;5.28;;;5.00;99.90;;;;;;5039201;28;20072;-78
2024/02/26 06:24:51;;;;;;;15.20;4.93;;;5.00;99.90;;;;;;5038734;28;20045;-79
2024/02/26 06:27:17;;;;;;;13.45;4.53;;;5.00;99.90;;;;;;5039386;28;20017;-78
2024/02/26 06:29:42;;;;;;;13.32;5.45;;;7.20;99.90;;;;;;5039187;28;20022;-79
2024/02/26 06:32:08;;;;;;;12.85;5.32;;;5.00;99.90;;;;;;5039563;28;20030;-79
2024/02/26 06:34:35;;;;;;;15.27;5.70;;;;;;;;;;5038906;28;20023;-79
2024/02/26 06:37:01;;;;;;;14.48;5.60;;;5.00;99.90;;;;;;5037438;28;20025;-79
2024/02/26 06:39:26;;;;;;;14.25;5.80;;;5.00;99.90;;;;;;5039252;28;20078;-78
2024/02/26 06:41:59;;;;;;;19.88;6.28;;;7.40;99.90;;;;;;5038448;28;20021;-78
2024/02/26 06:44:26;;;;;;;16.50;5.55;;;;;;;;;;5038397;28;20088;-77
2024/02/26 06:46:52;;;;;;;19.02;6.05;;;;;;;;;;5036654;28;20429;-77
2024/02/26 06:49:17;;;;;;;18.20;6.72;;;5.00;99.90;;;;;;5036464;28;20056;-78
2024/02/26 06:51:43;;;;;;;19.05;7.78;;;5.10;99.90;;;;;;5040289;28;20018;-78
2024/02/26 06:54:09;;;;;;;19.73;7.68;;;6.40;99.90;;;;;;5037118;28;20025;-77
2024/02/26 06:56:36;;;;;;;20.05;8.07;;;5.10;99.90;;;;;;5039585;28;20064;-77
2024/02/26 06:59:02;;;;;;;21.50;8.43;;;5.10;99.90;;;;;;5037247;28;20041;-77
2024/02/26 07:01:28;;;;;;;19.80;7.80;;;;;;;;;;5040556;28;20033;-78
2024/02/26 07:03:53;;;;;;;18.75;7.03;;;5.10;99.90;;;;;;5038143;28;20124;-77
2024/02/26 07:06:19;;;;;;;18.05;7.22;;;5.20;99.90;;;;;;5038600;28;20511;-77
2024/02/26 07:08:45;;;;;;;20.75;7.85;;;5.20;99.90;;;;;;5039631;28;20010;-78
2024/02/26 07:11:11;;;;;;;23.52;8.63;;;5.10;99.90;;;;;;5042681;28;20022;-79
2024/02/26 07:13:37;;;;;;;22.52;9.07;;;5.10;99.90;;;;;;5037558;28;20477;-79
2024/02/26 07:16:03;;;;;;;20.08;7.75;;;7.40;99.90;;;;;;5039043;28;20389;-79
2024/02/26 07:18:29;;;;;;;23.38;9.13;;;5.10;99.90;;;;;;5038448;28;20018;-79
2024/02/26 07:20:55;;;;;;;21.67;9.20;;;5.20;99.90;;;;;;5038369;28;20041;-79
2024/02/26 07:23:21;;;;;;;20.45;8.00;;;5.10;99.90;;;;;;5037420;28;20089;-79
2024/02/26 07:25:48;;;;;;;22.38;8.23;;;5.10;99.90;;;;;;5037322;28;20089;-79
2024/02/26 07:28:14;;;;;;;21.80;8.90;;;5.10;99.90;;;;;;5037201;28;20029;-79
2024/02/26 07:30:40;;;;;;;23.50;9.95;;;5.10;99.90;;;;;;5038290;28;20095;-79
2024/02/26 07:33:07;;;;;;;21.77;8.60;;;5.10;99.90;;;;;;5037920;28;20508;-79
2024/02/26 07:35:36;;;;;;;24.03;9.60;;;5.10;99.90;;;;;;5037461;28;20050;-79
2024/02/26 07:38:01;;;;;;;23.48;9.52;;;5.10;99.90;;;;;;5038105;28;20266;-79
2024/02/26 07:40:28;;;;;;;20.52;8.20;;;;;;;;;;5038190;28;20049;-79
2024/02/26 07:42:54;;;;;;;25.65;9.43;;;;;;;;;;5038936;28;20040;-79
2024/02/26 07:45:21;;;;;;;20.23;7.68;;;5.20;99.90;;;;;;5038593;28;20029;-79
2024/02/26 07:47:48;;;;;;;25.05;8.90;;;5.20;99.90;;;;;;5038094;28;20146;-79
2024/02/26 07:50:13;;;;;;;24.33;9.32;;;5.20;99.90;;;;;;5036586;28;20064;-79
2024/02/26 07:52:40;;;;;;;21.42;9.15;;;5.20;99.90;;;;;;5038402;28;20045;-79
2024/02/26 07:55:06;;;;;;;17.60;7.32;;;5.20;99.90;;;;;;5038007;28;20029;-79
2024/02/26 07:57:36;;;;;;;19.05;8.43;;;5.20;99.90;;;;;;5037670;28;20029;-79
2024/02/26 08:00:09;;;;;;;21.30;8.27;;;5.20;99.90;;;;;;5038480;28;20492;-79
2024/02/26 08:02:34;;;;;;;18.77;8.63;;;5.30;99.90;;;;;;5038277;28;20106;-79
2024/02/26 08:05:00;;;;;;;15.45;6.60;;;5.30;99.90;;;;;;5037840;28;20026;-79
2024/02/26 08:07:28;;;;;;;16.05;7.07;;;5.30;99.90;;;;;;5038117;28;20105;-79
2024/02/26 08:09:54;;;;;;;17.90;6.73;;;5.30;99.90;;;;;;5036538;28;20026;-79
2024/02/26 08:12:19;;;;;;;16.02;6.50;;;6.70;99.90;;;;;;5036656;28;20071;-79
2024/02/26 08:14:45;;;;;;;15.68;6.63;;;5.30;99.90;;;;;;5038394;28;20021;-79
2024/02/26 08:17:11;;;;;;;15.30;5.43;;;5.40;99.90;;;;;;5036575;28;20028;-79
2024/02/26 08:19:36;;;;;;;15.68;6.53;;;5.30;99.90;;;;;;5038058;28;20056;-79
2024/02/26 08:22:03;;;;;;;13.55;5.32;;;5.40;99.90;;;;;;5037527;28;20032;-79
2024/02/26 08:24:28;;;;;;;11.35;4.97;;;5.30;99.90;;;;;;5036244;28;20017;-79
2024/02/26 08:26:54;;;;;;;12.98;5.30;;;5.40;99.90;;;;;;5036375;28;20503;-79
2024/02/26 08:29:20;;;;;;;10.85;4.32;;;5.30;99.90;;;;;;5036850;28;20140;-79
2024/02/26 08:31:45;;;;;;;13.40;5.30;;;5.40;99.90;;;;;;5037313;28;20022;-79
2024/02/26 08:34:11;;;;;;;9.20;3.95;;;5.40;99.90;;;;;;5043109;28;20025;-79
2024/02/26 09:23:53;;;;;;;6.40;2.25;;;5.60;99.90;;;;;;5044493;28;20049;-79
2024/02/26 10:19:56;;;;;;;3.05;1.60;;;5.60;99.90;;;;;;5054426;28;20056;-83
2024/02/26 10:25:58;;;;;;;5.53;1.75;;;;;;;;;;5046556;28;20619;-77
2024/02/26 10:28:23;;;;;;;5.47;1.73;;;5.70;99.90;;;;;;5038195;28;20033;-77
2024/02/26 10:30:51;;;;;;;4.82;2.25;;;5.70;99.90;;;;;;5037213;28;20085;-77
2024/02/26 10:33:17;;;;;;;4.38;1.77;;;5.70;99.90;;;;;;5040087;28;20026;-78
2024/02/26 10:35:46;;;;;;;5.60;1.98;;;8.70;99.90;;;;;;5039450;28;20037;-77
2024/02/26 10:38:12;;;;;;;5.43;2.00;;;5.80;99.90;;;;;;5037597;28;20029;-77
2024/02/26 10:40:38;;;;;;;5.60;2.03;;;5.70;99.90;;;;;;5037685;28;20032;-77
2024/02/26 10:43:05;;;;;;;7.50;2.67;;;5.70;99.90;;;;;;5035922;28;20480;-77
2024/02/26 10:45:32;;;;;;;3.92;1.58;;;5.80;99.90;;;;;;5036470;28;20026;-77
2024/02/26 10:47:58;;;;;;;6.35;1.90;;;;;;;;;;5036967;28;20091;-77
2024/02/26 10:50:24;;;;;;;3.78;1.55;;;5.90;99.90;;;;;;5036997;28;20025;-77
2024/02/26 10:52:51;;;;;;;4.15;1.55;;;6.40;99.90;;;;;;5036907;28;20385;-77
2024/02/26 10:55:18;;;;;;;5.50;2.03;;;5.90;99.90;;;;;;5035451;28;20076;-77
2024/02/26 10:57:45;;;;;;;4.72;1.58;;;6.00;99.90;;;;;;5037364;28;20025;-77
2024/02/26 11:00:15;;;;;;;4.22;1.52;;;6.00;99.90;;;;;;5035039;28;20021;-79
2024/02/26 11:02:41;;;;;;;4.47;1.90;;;6.00;99.90;;;;;;5034969;28;20512;-78
2024/02/26 11:05:08;;;;;;;4.45;1.77;;;6.00;99.90;;;;;;5037476;28;20083;-78
2024/02/26 11:07:37;;;;;;;3.83;1.73;;;6.10;99.90;;;;;;5037217;28;20041;-78
2024/02/26 11:10:03;;;;;;;;;;;6.10;99.90;;;;;;5036734;28;20036;-79
2024/02/26 11:12:31;;;;;;;5.13;1.50;;;6.20;99.90;;;;;;5034304;28;19913;-78
2024/02/26 11:14:58;;;;;;;5.17;1.83;;;6.20;99.90;;;;;;5035584;28;20033;-79
2024/02/26 11:17:31;;;;;;;4.85;2.20;;;6.20;99.90;;;;;;5035199;28;20044;-78
2024/02/26 11:19:57;;;;;;;3.80;1.45;;;6.20;99.90;;;;;;5034936;28;20036;-78
2024/02/26 11:22:26;;;;;;;4.03;2.05;;;6.30;99.90;;;;;;5035480;28;20136;-78
2024/02/26 11:24:54;;;;;;;;;;;6.40;99.90;;;;;;5035375;28;20033;-78
2024/02/26 11:27:23;;;;;;;5.05;1.75;;;6.40;99.90;;;;;;5035221;28;19962;-78
2024/02/26 11:29:52;;;;;;;3.20;1.50;;;6.40;99.90;;;;;;5036734;28;20096;-77
2024/02/26 11:32:18;;;;;;;4.85;1.80;;;6.40;99.90;;;;;;5036729;28;20094;-77
2024/02/26 11:34:44;;;;;;;3.38;1.40;;;6.40;99.90;;;;;;5036083;28;20017;-77
2024/02/26 11:37:15;;;;;;;4.80;1.80;;;6.40;99.90;;;;;;5036147;28;20027;-77
2024/02/26 11:39:41;;;;;;;4.82;1.65;;;6.50;99.90;;;;;;5045036;28;20022;-78
2024/02/26 11:42:08;;;;;;;5.07;2.83;;;6.50;99.90;;;;;;5042578;28;20022;-78
2024/02/26 11:44:36;;;;;;;4.38;2.00;;;6.50;99.90;;;;;;5033229;28;20116;-79
2024/02/26 11:47:22;;;;;;;4.32;1.85;;;6.60;99.90;;;;;;5023644;28;20099;-79
2024/02/26 11:49:48;;;;;;;4.40;1.77;;;6.60;99.90;;;;;;5023831;28;20029;-78
2024/02/26 11:52:15;;;;;;;4.82;1.63;;;6.60;99.90;;;;;;5030378;28;20014;-77
2024/02/26 11:54:59;;;;;;;5.43;1.85;;;6.60;99.90;;;;;;5027972;28;20038;-78
2024/02/26 11:57:28;;;;;;;7.97;1.83;;;6.60;99.90;;;;;;5034498;28;20106;-78
2024/02/26 12:00:17;;;;;;;4.05;2.10;;;6.70;99.90;;;;;;5025824;28;20080;-78
2024/02/26 12:02:42;;;;;;;3.40;1.52;;;6.60;99.90;;;;;;5034273;28;20026;-79
2024/02/26 12:05:15;;;;;;;6.13;2.30;;;6.60;99.90;;;;;;5034768;28;20059;-78
2024/02/26 12:07:45;;;;;;;6.25;1.83;;;6.60;99.90;;;;;;5020879;28;20461;-78
2024/02/26 12:10:38;;;;;;;4.95;1.85;;;6.60;99.90;;;;;;5016628;28;20474;-78
2024/02/26 12:13:08;;;;;;;6.53;2.63;;;6.70;99.90;;;;;;5033938;28;20053;-79
2024/02/26 12:15:37;;;;;;;4.65;1.42;;;6.60;99.90;;;;;;5034028;28;20041;-78
2024/02/26 12:18:04;;;;;;;;;;;6.60;99.90;;;;;;5033141;28;20013;-78
2024/02/26 12:20:31;;;;;;;6.30;1.93;;;6.60;99.90;;;;;;5035412;28;19913;-78
2024/02/26 12:22:57;;;;;;;4.13;1.48;;;6.60;99.90;;;;;;5035155;28;20121;-78
2024/02/26 12:25:28;;;;;;;2.35;1.08;;;6.60;99.90;;;;;;5027180;28;20058;-78
2024/02/26 12:27:55;;;;;;;3.33;1.25;;;6.60;99.90;;;;;;5024125;28;20072;-78
2024/02/26 12:30:29;;;;;;;3.20;1.60;;;6.60;99.90;;;;;;5025600;28;20022;-78
2024/02/26 12:33:00;;;;;;;4.13;1.83;;;6.60;99.90;;;;;;5025266;28;20022;-82
2024/02/26 12:35:28;;;;;;;4.47;1.45;;;6.70;99.90;;;;;;5016532;28;20520;-78
2024/02/26 12:37:55;;;;;;;3.85;1.50;;;6.70;99.90;;;;;;5014049;28;20026;-78
2024/02/26 12:40:21;;;;;;;5.65;1.13;;;6.70;99.90;;;;;;5014819;28;20068;-78
2024/02/26 12:42:48;;;;;;;3.08;1.48;;;6.70;99.90;;;;;;5014868;28;20026;-78
2024/02/26 12:45:15;;;;;;;6.30;1.55;;;6.70;99.90;;;;;;5016232;28;20022;-78
2024/02/26 12:47:46;;;;;;;5.18;1.60;;;6.70;99.90;;;;;;5028635;28;20033;-78
2024/02/26 12:50:12;;;;;;;4.82;1.30;;;6.80;99.90;;;;;;5035827;28;20024;-78
2024/02/26 12:52:45;;;;;;;6.43;1.38;;;6.80;99.90;;;;;;5036466;28;20080;-78
2024/02/26 12:55:17;;;;;;;4.13;1.15;;;6.80;99.90;;;;;;5036387;28;20025;-78
2024/02/26 12:57:44;;;;;;;3.25;1.30;;;6.70;99.90;;;;;;5034384;28;20052;-78
2024/02/26 13:00:14;;;;;;;2.90;1.33;;;6.70;99.90;;;;;;5035020;28;20493;-78
2024/02/26 13:02:43;;;;;;;10.90;1.73;;;6.70;99.90;;;;;;5034832;28;20053;-78
2024/02/26 13:05:10;;;;;;;4.30;1.92;;;6.80;99.90;;;;;;5038567;28;20521;-78
2024/02/26 13:07:41;;;;;;;3.25;1.38;;;6.80;99.90;;;;;;5038337;28;20018;-78
2024/02/26 13:10:08;;;;;;;3.38;1.25;;;6.80;99.90;;;;;;5039738;28;20036;-78
2024/02/26 13:12:34;;;;;;;5.93;1.27;;;6.90;99.90;;;;;;5037487;28;20017;-78
2024/02/26 13:15:01;;;;;;;3.35;1.33;;;6.80;99.90;;;;;;5039479;28;20114;-78
2024/02/26 13:17:31;;;;;;;2.78;0.98;;;6.90;99.90;;;;;;5037098;28;20503;-78
2024/02/26 13:19:56;;;;;;;3.45;0.93;;;6.90;99.90;;;;;;5037380;28;20032;-76
2024/02/26 13:22:23;;;;;;;3.45;1.45;;;6.80;99.90;;;;;;5038606;28;20033;-77
2024/02/26 13:24:56;;;;;;;4.40;1.40;;;6.80;99.90;;;;;;5037120;28;20021;-78
2024/02/26 13:27:28;;;;;;;3.92;0.95;;;6.80;99.90;;;;;;5036254;28;20041;-78
2024/02/26 13:30:09;;;;;;;3.63;1.10;;;6.80;99.90;;;;;;5042750;28;20034;-78
2024/02/26 13:32:39;;;;;;;2.80;1.10;;;6.90;99.90;;;;;;5036822;28;20021;-77
2024/02/26 13:35:06;;;;;;;;;;;8.70;99.90;;;;;;5037454;28;20029;-78
2024/02/26 13:37:31;;;;;;;3.55;1.10;;;6.80;99.90;;;;;;5038657;28;19931;-75
2024/02/26 13:39:57;;;;;;;2.65;1.33;;;6.80;99.90;;;;;;5037558;28;20373;-78
2024/02/26 13:42:23;;;;;;;4.40;1.33;;;8.10;99.90;;;;;;5031023;28;20030;-77
2024/02/26 13:44:49;;;;;;;3.25;1.00;;;6.80;99.90;;;;;;5016649;28;20452;-78
2024/02/26 13:47:16;;;;;;;2.72;1.13;;;6.80;99.90;;;;;;5021434;28;20384;-78
2024/02/26 13:49:42;;;;;;;6.05;2.15;;;;;;;;;;5035638;28;20033;-78
2024/02/26 13:52:07;;;;;;;3.13;1.00;;;6.80;99.90;;;;;;5035630;28;20026;-80
2024/02/26 13:54:34;;;;;;;3.38;1.33;;;6.80;99.90;;;;;;5037365;28;20473;-77
2024/02/26 13:56:59;;;;;;;3.95;1.58;;;6.80;99.90;;;;;;5037334;28;20087;-77
2024/02/26 13:59:25;;;;;;;4.82;1.27;;;6.70;99.90;;;;;;5036228;28;20476;-79
2024/02/26 14:01:52;;;;;;;3.95;1.33;;;6.80;99.90;;;;;;5039503;28;20388;-79
2024/02/26 14:04:18;;;;;;;1.80;0.80;;;6.80;99.90;;;;;;5038688;28;20489;-79
2024/02/26 14:06:44;;;;;;;1.95;0.63;;;6.80;99.90;;;;;;5039181;28;20021;-80
2024/02/26 14:09:09;;;;;;;1.25;0.60;;;8.50;99.90;;;;;;5036501;28;20366;-79
2024/02/26 14:11:36;;;;;;;2.00;1.00;;;6.80;99.90;;;;;;5036058;28;20024;-77
2024/02/26 14:14:02;;;;;;;3.50;1.08;;;6.80;99.90;;;;;;5036061;28;20025;-77
2024/02/26 14:16:27;;;;;;;3.08;0.70;;;6.80;99.90;;;;;;5034919;28;20031;-78
2024/02/26 14:18:53;;;;;;;3.20;0.68;;;6.80;99.90;;;;;;5035053;28;20026;-78
2024/02/26 14:21:18;;;;;;;4.55;1.08;;;6.90;99.90;;;;;;5036900;28;20025;-78
2024/02/26 14:23:44;;;;;;;1.98;0.80;;;7.00;99.90;;;;;;5035403;28;20028;-77
2024/02/26 14:26:11;;;;;;;2.67;0.70;;;7.00;99.90;;;;;;5034436;28;20136;-79
2024/02/26 14:28:36;;;;;;;1.00;0.52;;;7.00;99.90;;;;;;5036439;28;20121;-78
2024/02/26 14:31:04;;;;;;;2.97;0.70;;;7.10;99.90;;;;;;5034748;28;20053;-79
2024/02/26 14:33:30;;;;;;;2.35;0.68;;;7.10;99.90;;;;;;5035608;28;20014;-78
2024/02/26 14:35:56;;;;;;;3.13;0.80;;;7.10;99.90;;;;;;5035237;28;20048;-78
2024/02/26 14:38:23;;;;;;;1.35;0.43;;;7.10;99.90;;;;;;5037565;28;20485;-78
2024/02/26 14:40:49;;;;;;;1.08;0.32;;;7.10;99.90;;;;;;5038764;28;20370;-78
2024/02/26 14:43:14;;;;;;;3.65;0.60;;;7.10;99.90;;;;;;5038007;28;20028;-79
2024/02/26 14:45:41;;;;;;;3.45;0.50;;;;;;;;;;5038305;28;20025;-78